Time;durP1;ratioP1;P1;durP2;ratioP2;P2;SDS_P1;SDS_P2;PMS_P1;PMS_P2;Temp;Humidity;BMP_temperature;BMP_pressure;BME280_temperature;BME280_humidity;BME280_pressure;Samples;Min_cycle;Max_cycle;Signal;HPM_P1;HPM_P2
2023/03/10 00:00:04;;;;;;;2.17;2.08;;;;;;;15.78;34.77;98807.25;5088706;28;20760;-74
2023/03/10 00:02:31;;;;;;;1.88;1.77;;;;;;;15.37;34.85;98732.22;5088865;28;20052;-74
2023/03/10 00:04:57;;;;;;;2.40;2.20;;;;;;;15.29;34.88;98719.00;5089412;28;20116;-74
2023/03/10 00:07:22;;;;;;;2.33;2.15;;;;;;;15.50;34.88;98754.56;5087725;28;20040;-74
2023/03/10 00:09:47;;;;;;;2.08;1.98;;;;;;;15.74;34.74;98787.22;5090873;28;20035;-73
2023/03/10 00:12:12;;;;;;;2.10;2.00;;;;;;;15.75;34.70;98787.03;5091742;28;20032;-73
2023/03/10 00:14:38;;;;;;;2.22;2.03;;;;;;;15.36;34.74;98723.34;5089234;28;20019;-74
2023/03/10 00:17:04;;;;;;;2.33;2.10;;;;;;;15.76;34.82;98779.84;5089335;28;20115;-74
2023/03/10 00:19:29;;;;;;;2.17;2.08;;;;;;;15.74;34.84;98776.53;5085006;28;20054;-73
2023/03/10 00:21:55;;;;;;;2.28;2.17;;;;;;;15.75;34.87;98776.31;5094984;28;20070;-74
2023/03/10 00:24:20;;;;;;;1.88;1.77;;;;;;;15.25;34.91;98694.50;5089114;28;20021;-74
2023/03/10 00:26:48;;;;;;;2.45;2.25;;;;;;;15.74;34.68;98763.13;5088929;28;20056;-73
2023/03/10 00:29:13;;;;;;;2.10;2.00;;;;;;;15.75;34.79;98759.41;5088389;28;20028;-73
2023/03/10 00:31:38;;;;;;;2.10;2.00;;;;;;;15.75;34.86;98765.59;5093697;28;20031;-74
2023/03/10 00:34:04;;;;;;;2.05;1.95;;;;;;;15.73;34.78;98764.16;5089753;28;20020;-73
2023/03/10 00:36:31;;;;;;;1.90;1.80;;;;;;;15.77;34.82;98761.91;5088517;28;20042;-73
2023/03/10 00:38:59;;;;;;;2.00;1.90;;;;;;;15.76;34.80;98761.09;5093828;28;20024;-73
2023/03/10 00:41:27;;;;;;;1.80;1.70;;;;;;;15.77;34.86;98752.00;5097619;28;20084;-75
2023/03/10 00:43:52;;;;;;;2.00;1.90;;;;;;;15.76;34.87;98753.03;5086242;28;20103;-74
2023/03/10 00:46:18;;;;;;;2.30;2.10;;;;;;;15.76;34.79;98755.72;5091947;28;20025;-74
2023/03/10 00:48:43;;;;;;;1.92;1.83;;;;;;;15.65;34.72;98732.19;5084811;28;20025;-73
2023/03/10 00:51:09;;;;;;;1.77;1.67;;;;;;;15.79;34.81;98752.63;5093083;28;20021;-73
2023/03/10 00:53:36;;;;;;;1.83;1.73;;;;;;;15.73;34.76;98743.53;5086225;28;20024;-73
2023/03/10 00:56:10;;;;;;;2.22;2.03;;;;;;;15.80;34.80;98748.09;5091654;28;20031;-74
2023/03/10 00:58:36;;;;;;;2.08;1.75;;;;;;;15.31;34.74;98666.91;5101426;28;20085;-74
2023/03/10 01:01:02;;;;;;;2.08;1.90;;;;;;;15.83;34.89;98750.38;5091405;28;20459;-74
2023/03/10 01:03:28;;;;;;;1.95;1.85;;;;;;;15.45;34.85;98684.66;5086103;28;20051;-74
2023/03/10 01:05:54;;;;;;;1.90;1.80;;;;;;;15.31;34.76;98664.22;5098565;28;20066;-74
2023/03/10 01:08:20;;;;;;;1.80;1.70;;;;;;;15.75;34.68;98748.69;5099583;28;20039;-74
2023/03/10 01:10:46;;;;;;;1.83;1.73;;;;;;;15.83;34.76;98745.00;5090037;28;20032;-74
2023/03/10 01:13:12;;;;;;;1.88;1.77;;;;;;;15.63;34.86;98716.28;5088425;28;20028;-74
2023/03/10 01:15:38;;;;;;;1.55;1.45;;;;;;;15.84;34.82;98739.44;5077465;28;20453;-74
2023/03/10 01:18:04;;;;;;;1.92;1.83;;;;;;;15.70;34.69;98717.16;5095395;28;20119;-74
2023/03/10 01:20:30;;;;;;;1.70;1.60;;;;;;;15.33;34.69;98666.69;5090296;28;20024;-74
2023/03/10 01:22:56;;;;;;;1.88;1.77;;;;;;;15.21;34.96;98645.06;5091568;28;20040;-73
2023/03/10 01:25:21;;;;;;;2.00;1.52;;;;;;;15.37;34.62;98660.75;5099348;28;20032;-75
2023/03/10 01:27:46;;;;;;;1.65;1.55;;;;;;;15.82;34.64;98730.78;5100090;28;20056;-74
2023/03/10 01:30:12;;;;;;;1.50;1.40;;;;;;;15.89;34.71;98733.50;5090175;28;20056;-74
2023/03/10 01:32:38;;;;;;;1.77;1.67;;;;;;;15.89;34.66;98750.41;5090797;28;20036;-73
2023/03/10 01:35:04;;;;;;;1.70;1.60;;;;;;;15.84;34.58;98736.75;5097989;28;20050;-74
2023/03/10 01:37:30;;;;;;;1.70;1.60;;;;;;;15.90;34.68;98746.69;5093693;28;20112;-74
2023/03/10 01:39:55;;;;;;;1.73;1.63;;;;;;;15.89;34.62;98745.06;5092451;28;20503;-73
2023/03/10 01:42:20;;;;;;;1.70;1.60;;;;;;;15.91;34.62;98740.31;5096374;28;20044;-74
2023/03/10 01:45:15;;;;;;;1.80;1.70;;;;;;;15.92;34.62;98739.25;5103774;28;20089;-73
2023/03/10 01:47:42;;;;;;;1.90;1.80;;;;;;;15.93;34.64;98740.13;5016778;28;20033;-73
2023/03/10 01:50:11;;;;;;;1.70;1.60;;;;;;;15.93;34.62;98727.53;4999577;28;20096;-73
2023/03/10 01:52:36;;;;;;;2.78;1.50;;;;;;;15.54;34.69;98663.91;5015586;28;20046;-74
2023/03/10 01:55:09;;;;;;;1.52;1.42;;;;;;;15.94;34.61;98723.81;5016062;28;20145;-75
2023/03/10 01:57:42;;;;;;;1.80;1.70;;;;;;;15.94;34.31;98734.53;4999292;28;20044;-74
2023/03/10 02:00:11;;;;;;;1.73;1.63;;;;;;;15.36;34.52;98636.84;4998862;28;20038;-73
2023/03/10 02:02:39;;;;;;;1.63;1.52;;;;;;;15.39;34.55;98633.78;4998467;28;20022;-73
2023/03/10 02:05:08;;;;;;;1.60;1.50;;;;;;;15.84;34.60;98706.47;4998210;28;20057;-73
2023/03/10 02:07:34;;;;;;;1.60;1.50;;;;;;;15.58;34.43;98657.09;5017788;28;20275;-74
2023/03/10 02:10:01;;;;;;;1.48;1.38;;;;;;;15.95;34.64;98712.06;4999393;28;20034;-74
2023/03/10 02:12:26;;;;;;;1.90;1.70;;;;;;;15.95;34.50;98719.28;4998291;28;20037;-74
2023/03/10 02:14:52;;;;;;;1.52;1.42;;;;;;;15.31;34.55;98613.38;5012981;28;20026;-73
2023/03/10 02:17:20;;;;;;;1.65;1.55;;;;;;;15.88;34.56;98703.19;4987726;28;20165;-74
2023/03/10 02:19:58;;;;;;;1.55;1.45;;;;;;;15.48;34.45;98641.44;5000433;28;20042;-73
2023/03/10 02:22:23;;;;;;;2.28;1.63;;;;;;;15.99;34.52;98718.69;5011883;28;20046;-74
2023/03/10 02:24:51;;;;;;;1.58;1.48;;;;;;;15.94;34.53;98705.06;5079866;28;20037;-73
2023/03/10 02:27:25;;;;;;;1.48;1.38;;;;;;;16.00;34.53;98714.13;5092169;28;20082;-74
2023/03/10 02:30:01;;;;;;;1.80;1.70;;;;;;;16.03;34.56;98713.75;5089929;28;20044;-74
2023/03/10 02:32:32;;;;;;;1.65;1.55;;;;;;;16.03;34.45;98712.91;5089081;28;20034;-74
2023/03/10 02:34:57;;;;;;;1.50;1.40;;;;;;;15.50;34.38;98633.19;5098748;28;20032;-74
2023/03/10 02:37:26;;;;;;;1.40;1.30;;;;;;;15.57;34.55;98623.31;5092361;28;20028;-74
2023/03/10 02:39:51;;;;;;;1.70;1.60;;;;;;;15.96;34.59;98680.72;5090777;28;20024;-74
2023/03/10 02:42:17;;;;;;;1.58;1.48;;;;;;;15.46;34.32;98627.44;5091257;28;20063;-75
2023/03/10 02:44:44;;;;;;;2.25;1.80;;;;;;;16.03;34.47;98694.97;5095524;28;20029;-73
2023/03/10 02:47:10;;;;;;;1.50;1.40;;;;;;;16.04;34.43;98693.13;5096650;28;20056;-73
2023/03/10 02:49:37;;;;;;;1.60;1.50;;;;;;;15.52;34.49;98614.25;5104021;28;20036;-74
2023/03/10 02:52:06;;;;;;;1.90;1.80;;;;;;;15.85;34.53;98663.41;5096363;28;20113;-75
2023/03/10 02:54:31;;;;;;;;;;;;;;;16.03;34.51;98697.66;5096690;28;20028;-75
2023/03/10 02:56:57;;;;;;;2.35;1.58;;;;;;;16.05;34.47;98694.75;5091854;28;20300;-74
2023/03/10 02:59:22;;;;;;;1.70;1.60;;;;;;;15.87;34.44;98672.06;5077321;28;20046;-74
2023/03/10 03:01:47;;;;;;;1.60;1.50;;;;;;;15.58;34.50;98624.16;5100316;28;20039;-74
2023/03/10 03:04:12;;;;;;;1.90;1.80;;;;;;;16.06;34.48;98699.13;5101801;28;20055;-74
2023/03/10 03:06:39;;;;;;;1.60;1.50;;;;;;;16.04;34.28;98704.66;5090386;28;20084;-75
2023/03/10 03:09:04;;;;;;;1.70;1.60;;;;;;;16.05;34.54;98700.94;5094104;28;20020;-75
2023/03/10 03:11:29;;;;;;;1.50;1.40;;;;;;;15.50;34.68;98615.28;5099374;28;20101;-74
2023/03/10 03:13:55;;;;;;;1.70;1.60;;;;;;;16.04;34.48;98691.25;5093829;28;20017;-75
2023/03/10 03:16:20;;;;;;;1.90;1.80;;;;;;;16.06;34.79;98689.22;5087887;28;20031;-74
2023/03/10 03:18:45;;;;;;;2.05;1.80;;;;;;;16.03;34.50;98684.25;5096112;28;20050;-73
2023/03/10 03:21:14;;;;;;;1.70;1.60;;;;;;;16.08;34.42;98691.69;5083659;28;20057;-74
2023/03/10 03:23:40;;;;;;;1.75;1.65;;;;;;;16.08;34.48;98689.81;5075444;28;20036;-74
2023/03/10 03:26:13;;;;;;;1.55;1.45;;;;;;;16.08;34.49;98679.09;5092561;28;20039;-73
2023/03/10 03:28:38;;;;;;;1.92;1.83;;;;;;;16.06;34.36;98680.34;5095526;28;20023;-74
2023/03/10 03:31:04;;;;;;;1.80;1.70;;;;;;;15.59;34.51;98602.53;5098328;28;20178;-74
2023/03/10 03:33:29;;;;;;;1.90;1.80;;;;;;;16.06;34.45;98678.50;5088721;28;20024;-73
2023/03/10 03:35:54;;;;;;;1.88;1.77;;;;;;;15.60;34.39;98608.72;5090257;28;20040;-73
2023/03/10 03:38:19;;;;;;;1.73;1.63;;;;;;;16.08;34.54;98681.78;5092848;28;20093;-74
2023/03/10 03:40:45;;;;;;;1.70;1.60;;;;;;;15.68;34.43;98617.41;5079904;28;20064;-74
2023/03/10 03:43:12;;;;;;;2.10;1.75;;;;;;;15.52;34.34;98590.97;5087212;28;20058;-74
2023/03/10 03:45:37;;;;;;;1.80;1.70;;;;;;;15.71;34.34;98617.00;5092836;28;20045;-74
2023/03/10 03:48:03;;;;;;;1.73;1.63;;;;;;;16.07;34.43;98671.28;5091394;28;20044;-73
2023/03/10 03:50:29;;;;;;;1.88;1.48;;;;;;;16.09;34.39;98680.75;5090679;28;20384;-75
2023/03/10 03:52:54;;;;;;;1.67;1.58;;;;;;;16.09;34.45;98682.59;5094997;28;20054;-74
2023/03/10 03:55:19;;;;;;;2.13;2.03;;;;;;;15.60;34.50;98614.91;5087910;28;20032;-73
2023/03/10 03:57:45;;;;;;;1.75;1.65;;;;;;;15.95;34.50;98665.69;5084237;28;20024;-73
2023/03/10 04:00:20;;;;;;;1.88;1.77;;;;;;;16.00;34.50;98682.81;5087879;28;20496;-73
2023/03/10 04:02:45;;;;;;;1.55;1.45;;;;;;;16.08;34.55;98692.50;5093842;28;20067;-74
2023/03/10 04:05:10;;;;;;;1.70;1.60;;;;;;;15.99;34.35;98675.78;5086064;28;20052;-73
2023/03/10 04:07:38;;;;;;;1.80;1.70;;;;;;;16.05;34.50;98684.03;5094864;28;20025;-73
2023/03/10 04:10:04;;;;;;;1.90;1.80;;;;;;;16.08;34.42;98699.72;5091057;28;20102;-74
2023/03/10 04:12:30;;;;;;;1.65;1.55;;;;;;;16.12;34.53;98700.97;5092282;28;20028;-73
2023/03/10 04:14:55;;;;;;;1.70;1.60;;;;;;;16.12;34.47;98701.78;5088454;28;20028;-74
2023/03/10 04:17:20;;;;;;;1.70;1.60;;;;;;;16.12;34.39;98692.94;5089499;28;20051;-74
2023/03/10 04:19:46;;;;;;;1.60;1.50;;;;;;;16.06;34.47;98689.22;5088863;28;20036;-73
2023/03/10 04:22:11;;;;;;;1.58;1.48;;;;;;;16.02;34.45;98679.13;5090780;28;20489;-74
2023/03/10 04:24:38;;;;;;;1.67;1.58;;;;;;;16.14;34.40;98704.25;5088000;28;20043;-75
2023/03/10 04:27:03;;;;;;;1.50;1.40;;;;;;;16.14;34.31;98701.56;5089462;28;20032;-74
2023/03/10 04:29:29;;;;;;;1.70;1.60;;;;;;;15.99;34.41;98675.78;5091950;28;20028;-74
2023/03/10 04:31:54;;;;;;;1.70;1.60;;;;;;;16.15;34.43;98695.22;5089922;28;20020;-74
2023/03/10 04:34:19;;;;;;;1.60;1.50;;;;;;;16.15;34.41;98695.22;5102331;28;20069;-74
2023/03/10 04:36:44;;;;;;;1.65;1.55;;;;;;;15.77;34.41;98633.31;5085811;28;20035;-73
2023/03/10 04:39:10;;;;;;;1.70;1.60;;;;;;;15.85;34.30;98643.84;5094643;28;20127;-74
2023/03/10 04:41:35;;;;;;;1.60;1.50;;;;;;;16.09;34.25;98686.09;5089994;28;20036;-74
2023/03/10 04:44:01;;;;;;;1.52;1.42;;;;;;;15.66;34.41;98611.44;5088754;28;20490;-74
2023/03/10 04:46:27;;;;;;;1.48;1.38;;;;;;;16.14;34.25;98702.44;5094495;28;20032;-74
2023/03/10 04:48:54;;;;;;;1.27;1.25;;;;;;;16.19;34.28;98696.44;5094365;28;20039;-75
2023/03/10 04:51:19;;;;;;;1.70;1.60;;;;;;;15.70;34.28;98619.88;5101428;28;20110;-74
2023/03/10 04:53:45;;;;;;;1.30;1.30;;;;;;;16.20;34.39;98693.56;5092590;28;20032;-73
2023/03/10 04:56:10;;;;;;;1.60;1.50;;;;;;;16.19;34.33;98678.50;5100782;28;20036;-74
2023/03/10 04:58:36;;;;;;;1.60;1.50;;;;;;;16.20;34.37;98680.16;5096799;28;20032;-74
2023/03/10 05:01:01;;;;;;;1.58;1.48;;;;;;;16.01;34.28;98640.75;5091457;28;20541;-74
2023/03/10 05:03:26;;;;;;;1.38;1.33;;;;;;;16.20;34.13;98672.13;5094643;28;20063;-75
2023/03/10 05:05:52;;;;;;;1.70;1.60;;;;;;;16.16;34.30;98667.38;5105846;28;20473;-74
2023/03/10 05:08:17;;;;;;;1.40;1.30;;;;;;;16.21;34.32;98675.63;5097640;28;20032;-74
2023/03/10 05:10:43;;;;;;;1.55;1.45;;;;;;;16.22;34.10;98686.13;5092002;28;20028;-73
2023/03/10 05:13:11;;;;;;;1.60;1.50;;;;;;;16.22;34.34;98686.13;5098032;28;20058;-75
2023/03/10 05:15:40;;;;;;;1.23;1.23;;;;;;;16.23;34.28;98678.94;5087627;28;20028;-74
2023/03/10 05:18:06;;;;;;;1.25;1.20;;;;;;;16.20;34.30;98685.50;5095549;28;20020;-74
2023/03/10 05:20:31;;;;;;;1.50;1.40;;;;;;;16.24;34.32;98693.97;5082093;28;20039;-74
2023/03/10 05:22:56;;;;;;;1.50;1.40;;;;;;;16.20;34.22;98688.19;5079930;28;20024;-74
2023/03/10 05:25:22;;;;;;;1.50;1.40;;;;;;;16.21;34.27;98700.56;5104973;28;20130;-74
2023/03/10 05:27:47;;;;;;;1.52;1.42;;;;;;;16.19;34.33;98705.31;5092505;28;20374;-73
2023/03/10 05:30:14;;;;;;;1.65;1.55;;;;;;;16.01;34.32;98675.56;5103962;28;20024;-74
2023/03/10 05:32:40;;;;;;;1.33;1.33;;;;;;;15.70;34.43;98627.91;5097197;28;20074;-74
2023/03/10 05:35:06;;;;;;;1.50;1.40;;;;;;;15.31;34.47;98534.91;5096367;28;20035;-74
2023/03/10 05:37:35;;;;;;;1.40;1.30;;;;;;;16.15;34.30;98671.91;5091677;28;20029;-74
2023/03/10 05:40:00;;;;;;;;;;;;;;;16.24;34.40;98669.84;5092422;28;20066;-74
2023/03/10 05:42:26;;;;;;;1.50;1.40;;;;;;;16.25;34.24;98666.13;5098278;28;19913;-73
2023/03/10 05:44:51;;;;;;;1.48;1.38;;;;;;;16.14;34.23;98645.28;5094326;28;20028;-73
2023/03/10 05:47:18;;;;;;;1.30;1.30;;;;;;;15.77;34.08;98591.25;5102690;28;20082;-74
2023/03/10 05:49:43;;;;;;;1.35;1.30;;;;;;;15.74;34.17;98592.47;5104717;28;20384;-73
2023/03/10 05:52:09;;;;;;;1.40;1.30;;;;;;;15.74;34.42;98605.88;5096826;28;20040;-74
2023/03/10 05:54:35;;;;;;;1.40;1.30;;;;;;;15.61;34.20;98571.00;5092096;28;20040;-74
2023/03/10 05:57:00;;;;;;;1.38;1.30;;;;;;;16.27;34.24;98664.09;5090261;28;20484;-73
2023/03/10 05:59:26;;;;;;;1.40;1.30;;;;;;;16.27;34.19;98660.56;5089401;28;20032;-73
2023/03/10 06:01:51;;;;;;;1.80;1.30;;;;;;;16.24;34.12;98661.81;5094848;28;20047;-73
2023/03/10 06:04:16;;;;;;;1.40;1.30;;;;;;;16.21;34.25;98665.72;5090057;28;20048;-74
2023/03/10 06:06:41;;;;;;;1.20;1.20;;;;;;;16.24;34.19;98669.84;5092963;28;20036;-74
2023/03/10 06:09:07;;;;;;;1.50;1.40;;;;;;;16.26;34.19;98675.81;5087333;28;20040;-74
2023/03/10 06:11:32;;;;;;;1.40;1.30;;;;;;;16.27;34.30;98688.22;5095653;28;20039;-74
2023/03/10 06:13:58;;;;;;;1.10;1.10;;;;;;;16.15;34.24;98657.69;5087691;28;20025;-74
2023/03/10 06:16:23;;;;;;;1.23;1.23;;;;;;;16.29;34.26;98690.69;5094552;28;20111;-74
2023/03/10 06:18:52;;;;;;;1.50;1.40;;;;;;;16.28;34.26;98679.13;5087285;28;20493;-73
2023/03/10 06:21:17;;;;;;;;;;;;;;;16.30;34.20;98678.91;5094321;28;20127;-74
2023/03/10 06:23:43;;;;;;;1.25;1.25;;;;;;;16.31;34.13;98670.69;5094313;28;19927;-73
2023/03/10 06:26:12;;;;;;;1.40;1.30;;;;;;;16.30;34.22;98678.91;5093072;28;20048;-73
2023/03/10 06:28:39;;;;;;;1.48;1.38;;;;;;;16.17;34.21;98674.38;5084916;28;20053;-74
2023/03/10 06:31:07;;;;;;;1.10;1.10;;;;;;;16.30;34.11;98693.16;5092529;28;20054;-74
2023/03/10 06:33:33;;;;;;;1.40;1.30;;;;;;;16.29;34.20;98698.72;5091798;28;20024;-74
2023/03/10 06:35:59;;;;;;;1.35;1.25;;;;;;;16.00;34.10;98656.00;5092063;28;20043;-74
2023/03/10 06:38:24;;;;;;;1.50;1.40;;;;;;;15.78;34.22;98619.69;5090974;28;20024;-74
2023/03/10 06:40:49;;;;;;;1.10;1.10;;;;;;;16.27;34.25;98698.94;5086651;28;20474;-74
2023/03/10 06:43:15;;;;;;;1.38;1.27;;;;;;;16.12;34.29;98668.81;5097237;28;20035;-74
2023/03/10 06:45:41;;;;;;;1.20;1.20;;;;;;;16.25;34.35;98693.75;5097203;28;20016;-73
2023/03/10 06:48:07;;;;;;;1.35;1.25;;;;;;;16.31;34.12;98702.88;5088986;28;20110;-74
2023/03/10 06:50:32;;;;;;;1.30;1.30;;;;;;;15.92;34.18;98640.09;5091436;28;20032;-74
2023/03/10 06:52:57;;;;;;;1.20;1.10;;;;;;;16.33;34.21;98702.66;5083346;28;20039;-74
2023/03/10 06:55:22;;;;;;;1.33;1.30;;;;;;;16.37;34.08;98703.88;5091143;28;20044;-75
2023/03/10 06:57:48;;;;;;;1.20;1.20;;;;;;;15.89;34.03;98626.31;5101729;28;20039;-74
2023/03/10 07:00:14;;;;;;;1.38;1.27;;;;;;;16.29;34.13;98702.22;5094316;28;20024;-74
2023/03/10 07:02:40;;;;;;;1.30;1.27;;;;;;;16.33;34.09;98708.84;5095485;28;20048;-74
2023/03/10 07:05:07;;;;;;;1.40;1.30;;;;;;;16.23;34.20;98695.03;5089948;28;20131;-74
2023/03/10 07:07:32;;;;;;;1.30;1.30;;;;;;;15.76;34.25;98627.13;5089562;28;20103;-74
2023/03/10 07:09:57;;;;;;;1.50;1.40;;;;;;;15.93;34.28;98659.72;5086205;28;20054;-74
2023/03/10 07:12:23;;;;;;;1.30;1.20;;;;;;;16.29;34.23;98712.13;5095493;28;20024;-74
2023/03/10 07:14:49;;;;;;;1.67;1.58;;;;;;;16.33;34.19;98716.06;5089642;28;20028;-73
2023/03/10 07:17:14;;;;;;;1.13;1.13;;;;;;;16.33;34.21;98699.97;5083160;28;20639;-73
2023/03/10 07:19:40;;;;;;;1.10;1.10;;;;;;;15.84;34.19;98615.38;5102885;28;20024;-73
2023/03/10 07:22:05;;;;;;;1.15;1.15;;;;;;;16.19;34.33;98677.69;5094114;28;20033;-73
2023/03/10 07:24:30;;;;;;;1.38;1.30;;;;;;;15.86;34.06;98621.38;5091092;28;20501;-74
2023/03/10 07:26:59;;;;;;;1.30;1.23;;;;;;;15.80;34.08;98622.16;5094754;28;20023;-74
2023/03/10 07:29:24;;;;;;;1.10;1.10;;;;;;;16.38;34.13;98713.59;5093807;28;20028;-74
2023/03/10 07:31:49;;;;;;;1.17;1.17;;;;;;;16.27;34.08;98687.38;5091758;28;20288;-72
2023/03/10 07:34:14;;;;;;;1.00;1.00;;;;;;;16.36;34.06;98702.25;5090146;28;20016;-74
2023/03/10 07:36:40;;;;;;;1.00;1.00;;;;;;;16.39;34.11;98707.19;5094431;28;20035;-72
2023/03/10 07:39:09;;;;;;;1.23;1.17;;;;;;;16.42;34.30;98709.47;5094015;28;20048;-74
2023/03/10 07:41:34;;;;;;;1.15;1.15;;;;;;;16.48;33.99;98708.63;5088597;28;20035;-73
2023/03/10 07:43:59;;;;;;;1.10;1.10;;;;;;;16.52;33.84;98719.78;5088980;28;20028;-74
2023/03/10 07:46:25;;;;;;;1.10;1.10;;;;;;;16.49;33.84;98719.16;5092223;28;20072;-74
2023/03/10 07:48:51;;;;;;;1.20;1.20;;;;;;;16.04;33.95;98659.09;5091920;28;20074;-74
2023/03/10 07:51:17;;;;;;;1.20;1.20;;;;;;;16.15;33.93;98655.00;5086677;28;20021;-74
2023/03/10 07:53:42;;;;;;;1.08;1.05;;;;;;;16.48;33.83;98712.16;5093462;28;20027;-73
2023/03/10 07:56:10;;;;;;;1.20;1.20;;;;;;;16.07;33.67;98637.25;5094553;28;20024;-74
2023/03/10 07:58:35;;;;;;;1.20;1.20;;;;;;;16.57;33.77;98725.38;5091161;28;20055;-74
2023/03/10 08:01:01;;;;;;;1.20;1.10;;;;;;;16.21;33.70;98660.34;5089303;28;20657;-75
2023/03/10 08:03:27;;;;;;;1.10;1.10;;;;;;;16.54;33.53;98723.09;5087320;28;20036;-75
2023/03/10 08:05:53;;;;;;;1.00;1.00;;;;;;;16.56;33.87;98721.81;5100889;28;20035;-74
2023/03/10 08:08:18;;;;;;;1.13;1.13;;;;;;;16.57;33.66;98744.16;5094812;28;20016;-74
2023/03/10 08:10:44;;;;;;;1.10;1.10;;;;;;;16.58;33.81;98746.59;5090553;28;20028;-74
2023/03/10 08:13:09;;;;;;;1.40;1.30;;;;;;;16.53;33.86;98733.00;5086128;28;20087;-74
2023/03/10 08:15:36;;;;;;;1.20;1.10;;;;;;;16.59;33.75;98752.78;5093019;28;20028;-74
2023/03/10 08:18:04;;;;;;;1.20;1.10;;;;;;;16.59;33.71;98736.69;5105830;28;20032;-74
2023/03/10 08:20:31;;;;;;;1.00;1.00;;;;;;;16.60;33.78;98730.28;5090304;28;20092;-74
2023/03/10 08:22:56;;;;;;;1.00;1.00;;;;;;;15.95;33.69;98620.13;5086399;28;20016;-74
2023/03/10 08:25:21;;;;;;;1.20;1.20;;;;;;;16.37;33.60;98682.44;5089914;28;20020;-74
2023/03/10 08:27:47;;;;;;;1.20;1.10;;;;;;;16.65;33.68;98734.03;5100262;28;20012;-73
2023/03/10 08:30:12;;;;;;;1.00;1.00;;;;;;;16.66;33.54;98742.91;5100739;28;20131;-74
2023/03/10 08:32:37;;;;;;;1.10;1.10;;;;;;;16.19;33.79;98672.31;5099388;28;20023;-73
2023/03/10 08:35:04;;;;;;;1.00;1.00;;;;;;;16.66;33.63;98737.53;5093004;28;20020;-73
2023/03/10 08:37:29;;;;;;;1.20;1.20;;;;;;;16.63;33.69;98740.63;5090600;28;20040;-74
2023/03/10 08:39:57;;;;;;;1.30;1.20;;;;;;;16.66;33.74;98745.59;5090046;28;20099;-75
2023/03/10 08:42:22;;;;;;;1.10;1.10;;;;;;;16.68;33.61;98751.56;5087950;28;20031;-74
2023/03/10 08:44:47;;;;;;;1.08;1.08;;;;;;;16.68;33.64;98759.59;5086361;28;20033;-74
2023/03/10 08:47:12;;;;;;;1.30;1.20;;;;;;;16.69;33.61;98751.38;5094253;28;20367;-74
2023/03/10 08:49:38;;;;;;;1.10;1.10;;;;;;;16.21;33.57;98670.25;5088672;28;20474;-74
2023/03/10 08:52:03;;;;;;;1.10;1.10;;;;;;;16.69;33.55;98750.53;5089634;28;20032;-74
2023/03/10 08:54:28;;;;;;;1.00;1.00;;;;;;;16.53;33.50;98716.91;5094589;28;20029;-74
2023/03/10 08:56:54;;;;;;;1.15;1.15;;;;;;;16.33;33.65;98682.00;5094572;28;20039;-73
2023/03/10 08:59:19;;;;;;;1.20;1.20;;;;;;;16.67;33.60;98747.22;5088895;28;20028;-74
2023/03/10 09:01:45;;;;;;;1.02;1.00;;;;;;;16.66;33.65;98738.34;5086893;28;20085;-74
2023/03/10 09:04:11;;;;;;;1.10;1.10;;;;;;;16.20;33.66;98666.75;5090369;28;20128;-74
2023/03/10 09:06:37;;;;;;;1.25;1.13;;;;;;;16.66;33.77;98733.00;5098255;28;20021;-74
2023/03/10 09:09:04;;;;;;;1.15;1.15;;;;;;;16.66;33.81;98742.91;5088753;28;20036;-74
2023/03/10 09:11:31;;;;;;;1.00;1.00;;;;;;;16.68;33.68;98738.97;5087077;28;20059;-74
2023/03/10 09:13:58;;;;;;;1.00;1.00;;;;;;;16.70;33.69;98736.09;5079222;28;20021;-74
2023/03/10 09:16:23;;;;;;;1.00;1.00;;;;;;;16.71;33.69;98732.38;5093325;28;20067;-74
2023/03/10 09:18:48;;;;;;;1.40;1.30;;;;;;;16.71;33.63;98725.13;5087086;28;20024;-74
2023/03/10 09:21:16;;;;;;;1.10;1.10;;;;;;;16.70;33.74;98730.72;5092534;28;20028;-74
2023/03/10 09:23:43;;;;;;;1.20;1.20;;;;;;;16.69;33.61;98737.09;5098984;28;20028;-74
2023/03/10 09:26:08;;;;;;;1.10;1.10;;;;;;;16.70;33.60;98728.88;5091308;28;20031;-74
2023/03/10 09:28:34;;;;;;;1.10;1.10;;;;;;;16.70;33.78;98733.41;5077217;28;20040;-74
2023/03/10 09:30:59;;;;;;;1.13;1.13;;;;;;;16.15;33.59;98666.53;5095439;28;20058;-74
2023/03/10 09:33:24;;;;;;;1.20;1.20;;;;;;;16.34;33.82;98677.47;5096218;28;20025;-74
2023/03/10 09:35:50;;;;;;;1.15;1.15;;;;;;;16.70;33.69;98750.31;5091855;28;20032;-73
2023/03/10 09:38:16;;;;;;;1.35;1.30;;;;;;;16.63;33.68;98735.25;5088880;28;20354;-74
2023/03/10 09:41:03;;;;;;;1.10;1.10;;;;;;;16.70;33.75;98769.13;5097454;28;20476;-74
2023/03/10 09:43:33;;;;;;;1.00;1.00;;;;;;;16.71;33.68;98769.94;5096540;28;20123;-74
2023/03/10 09:46:06;;;;;;;1.30;1.20;;;;;;;16.28;33.75;98710.50;5101982;28;20028;-74
2023/03/10 09:48:57;;;;;;;1.20;1.20;;;;;;;16.71;33.71;98773.44;5093610;28;20024;-74
2023/03/10 09:51:25;;;;;;;1.20;1.20;;;;;;;16.69;33.75;98772.84;5102079;28;20016;-74
2023/03/10 09:54:26;;;;;;;1.00;1.00;;;;;;;16.60;33.67;98757.94;5103706;28;20320;-74
2023/03/10 09:56:54;;;;;;;1.52;1.20;;;;;;;16.04;33.68;98685.09;5063118;28;20059;-74
2023/03/10 09:59:29;;;;;;;1.10;1.10;;;;;;;16.09;33.63;98685.28;5091770;28;20020;-74
2023/03/10 10:01:55;;;;;;;0.98;0.98;;;;;;;16.70;33.78;98782.53;5098670;28;20031;-74
2023/03/10 10:04:24;;;;;;;1.40;1.30;;;;;;;16.38;33.67;98735.03;5078736;28;20037;-75
2023/03/10 10:06:50;;;;;;;1.40;1.30;;;;;;;16.73;33.84;98795.53;5104836;28;20031;-73
2023/03/10 10:09:42;;;;;;;1.50;1.40;;;;;;;16.73;33.65;98792.88;5091680;28;20044;-74
2023/03/10 10:12:22;;;;;;;1.02;1.02;;;;;;;16.73;33.77;98794.72;5100048;28;20044;-74
2023/03/10 10:14:49;;;;;;;1.30;1.20;;;;;;;16.25;33.40;98725.94;5101720;28;20035;-74
2023/03/10 10:17:36;;;;;;;1.27;1.20;;;;;;;16.72;33.79;98790.38;5087951;28;20420;-73
2023/03/10 10:20:06;;;;;;;1.00;1.00;;;;;;;16.30;33.71;98717.28;5094046;28;20028;-74
2023/03/10 10:22:33;;;;;;;;;;;;;;;16.76;33.77;98799.69;5103110;28;20096;-74
2023/03/10 10:25:07;;;;;;;1.17;1.17;;;;;;;16.36;33.71;98745.16;5101272;28;19912;-73
2023/03/10 10:27:34;;;;;;;1.15;1.15;;;;;;;16.75;33.74;98814.16;5094475;28;20024;-75
2023/03/10 10:30:33;;;;;;;1.15;1.15;;;;;;;16.75;33.83;98814.16;5093103;28;20061;-74
2023/03/10 10:33:02;;;;;;;;;;;;;;;16.76;33.82;98817.66;5096950;28;20037;-74
2023/03/10 10:35:38;;;;;;;1.10;1.10;;;;;;;16.77;33.75;98817.44;5088461;28;19967;-74
2023/03/10 10:38:10;;;;;;;1.20;1.20;;;;;;;16.77;33.78;98813.94;5090849;28;20090;-74
2023/03/10 10:40:47;;;;;;;1.15;1.10;;;;;;;16.80;33.78;98810.84;5102929;28;20030;-73
2023/03/10 10:43:19;;;;;;;1.10;1.10;;;;;;;16.80;33.70;98808.97;5079047;28;20047;-74
2023/03/10 10:45:57;;;;;;;1.00;1.00;;;;;;;16.40;33.67;98744.53;5089119;28;20020;-74
2023/03/10 10:48:41;;;;;;;1.10;1.10;;;;;;;16.85;33.67;98808.34;5090268;28;20035;-74
2023/03/10 10:51:31;;;;;;;1.85;1.75;;;;;;;16.86;33.55;98812.69;5098174;28;20082;-73
2023/03/10 10:53:58;;;;;;;1.55;1.45;;;;;;;16.85;33.67;98811.88;5094833;28;20029;-73
2023/03/10 10:56:24;;;;;;;1.10;1.10;;;;;;;16.78;33.58;98796.78;5090446;28;20032;-74
2023/03/10 10:59:21;;;;;;;1.10;1.10;;;;;;;16.91;33.67;98818.28;5090683;28;20027;-73
2023/03/10 11:01:53;;;;;;;1.25;1.25;;;;;;;16.89;33.65;98818.47;5093569;28;20107;-74
2023/03/10 11:04:19;;;;;;;1.27;1.17;;;;;;;16.92;33.43;98834.19;5088478;28;20044;-74
2023/03/10 11:06:45;;;;;;;1.02;1.02;;;;;;;16.81;33.49;98799.06;5088242;28;20031;-73
2023/03/10 11:09:11;;;;;;;1.00;1.00;;;;;;;16.94;33.45;98826.72;5099380;28;20032;-74
2023/03/10 11:11:36;;;;;;;1.10;1.10;;;;;;;16.95;33.61;98823.03;5098865;28;20020;-73
2023/03/10 11:14:41;;;;;;;1.20;1.10;;;;;;;16.96;33.59;98819.31;5088684;28;20027;-74
2023/03/10 11:17:13;;;;;;;1.23;1.13;;;;;;;16.81;33.39;98789.16;5101091;28;20108;-74
2023/03/10 11:19:56;;;;;;;1.40;1.30;;;;;;;16.94;33.57;98820.53;5100571;28;20512;-74
2023/03/10 11:22:31;;;;;;;1.20;1.20;;;;;;;16.94;33.37;98817.84;5097807;28;20508;-74
2023/03/10 11:25:18;;;;;;;1.40;1.30;;;;;;;16.92;33.47;98815.38;5090065;28;20029;-74
2023/03/10 11:28:00;;;;;;;1.15;1.15;;;;;;;16.91;33.56;98813.75;5099296;28;20051;-74
2023/03/10 11:30:31;;;;;;;1.10;1.10;;;;;;;16.78;33.60;98794.09;5102412;28;20097;-74
2023/03/10 11:33:15;;;;;;;1.00;1.00;;;;;;;16.90;33.53;98812.06;5085607;28;20024;-73
2023/03/10 11:35:45;;;;;;;1.33;1.20;;;;;;;16.83;33.68;98799.69;5097984;28;20111;-73